createdAt,value
2022-09-14T00:00:30.425Z,16.46
2022-09-14T00:02:56.806Z,16.45
2022-09-14T00:05:23.201Z,16.42
2022-09-14T00:07:49.568Z,16.40
2022-09-14T00:10:15.905Z,16.39
2022-09-14T00:12:42.421Z,16.37
2022-09-14T00:15:08.881Z,16.35
2022-09-14T00:17:35.222Z,16.34
2022-09-14T00:20:02.296Z,16.32
2022-09-14T00:22:28.872Z,16.31
2022-09-14T00:24:55.211Z,16.28
2022-09-14T00:27:21.546Z,16.28
2022-09-14T00:29:48.593Z,16.24
2022-09-14T00:32:14.983Z,16.23
2022-09-14T00:34:41.424Z,16.23
2022-09-14T00:37:07.761Z,16.17
2022-09-14T00:39:34.065Z,16.13
2022-09-14T00:42:00.440Z,16.11
2022-09-14T00:44:26.747Z,16.10
2022-09-14T00:46:55.015Z,16.08
2022-09-14T00:49:23.937Z,16.04
2022-09-14T00:52:10.904Z,15.98
2022-09-14T00:54:48.202Z,15.97
2022-09-14T00:57:15.756Z,15.94
2022-09-14T00:59:46.741Z,15.90
2022-09-14T01:02:16.690Z,15.87
2022-09-14T01:04:43.359Z,15.84
2022-09-14T01:07:28.167Z,15.83
2022-09-14T01:09:54.913Z,15.85
2022-09-14T01:12:26.457Z,15.84
2022-09-14T01:15:11.772Z,15.82
2022-09-14T01:17:58.381Z,15.80
2022-09-14T01:20:32.908Z,15.80
2022-09-14T01:22:59.211Z,15.82
2022-09-14T01:25:37.672Z,15.85
2022-09-14T01:28:08.551Z,15.86
2022-09-14T01:30:35.912Z,15.84
2022-09-14T01:33:07.725Z,15.79
2022-09-14T01:35:49.120Z,15.78
2022-09-14T01:38:15.392Z,15.74
2022-09-14T01:40:44.158Z,15.70
2022-09-14T01:43:26.402Z,15.67
2022-09-14T01:46:13.415Z,15.62
2022-09-14T01:48:42.911Z,15.63
2022-09-14T01:51:11.429Z,15.64
2022-09-14T01:53:37.743Z,15.66
2022-09-14T01:56:15.238Z,15.68
2022-09-14T01:58:53.905Z,15.67
2022-09-14T02:01:24.725Z,15.66
2022-09-14T02:03:55.592Z,15.63
2022-09-14T02:06:28.349Z,15.59
2022-09-14T02:08:54.689Z,15.57
2022-09-14T02:11:21.400Z,15.55
2022-09-14T02:13:47.808Z,15.55
2022-09-14T02:16:14.268Z,15.56
2022-09-14T02:18:40.701Z,15.60
2022-09-14T02:21:16.006Z,15.60
2022-09-14T02:23:42.428Z,15.60
2022-09-14T02:26:09.977Z,15.60
2022-09-14T02:28:36.358Z,15.59
2022-09-14T02:31:05.717Z,15.56
2022-09-14T02:33:39.981Z,15.54
2022-09-14T02:36:33.041Z,15.54
2022-09-14T02:39:02.749Z,15.55
2022-09-14T02:41:32.125Z,15.57
2022-09-14T02:44:07.454Z,15.59
2022-09-14T02:46:40.605Z,15.61
2022-09-14T02:49:12.848Z,15.62
2022-09-14T02:51:42.989Z,15.62
2022-09-14T02:54:21.045Z,15.61
2022-09-14T02:56:48.992Z,15.63
2022-09-14T02:59:15.349Z,15.64
2022-09-14T03:01:41.700Z,15.66
2022-09-14T03:04:10.995Z,15.65
2022-09-14T03:06:37.381Z,15.67
2022-09-14T03:09:03.719Z,15.68
2022-09-14T03:11:30.027Z,15.68
2022-09-14T03:13:56.476Z,15.69
2022-09-14T03:16:25.499Z,15.69
2022-09-14T03:18:51.937Z,15.70
2022-09-14T03:21:18.348Z,15.68
2022-09-14T03:23:45.803Z,15.69
2022-09-14T03:26:13.670Z,15.67
2022-09-14T03:28:40.260Z,15.66
2022-09-14T03:31:07.802Z,15.63
2022-09-14T03:33:34.246Z,15.65
2022-09-14T03:36:01.198Z,15.65
2022-09-14T03:38:29.973Z,15.65
2022-09-14T03:40:57.914Z,15.64
2022-09-14T03:43:24.265Z,15.64
2022-09-14T03:45:53.320Z,15.66
2022-09-14T03:48:19.625Z,15.68
2022-09-14T03:50:45.949Z,15.67
2022-09-14T03:53:12.240Z,15.68
2022-09-14T03:55:39.798Z,15.70
2022-09-14T03:58:06.110Z,15.69
2022-09-14T04:00:32.429Z,15.71
2022-09-14T04:03:00.133Z,15.66
2022-09-14T04:05:26.501Z,15.71
2022-09-14T04:07:52.804Z,15.73
2022-09-14T04:10:19.160Z,15.74
2022-09-14T04:12:45.646Z,15.74
2022-09-14T04:15:12.016Z,15.73
2022-09-14T04:17:38.361Z,15.72
2022-09-14T04:20:04.869Z,15.69
2022-09-14T04:22:31.237Z,15.67
2022-09-14T04:24:57.562Z,15.66
2022-09-14T04:27:23.948Z,15.67
2022-09-14T04:29:50.513Z,15.67
2022-09-14T04:32:16.961Z,15.67
2022-09-14T04:34:43.315Z,15.65
2022-09-14T04:37:09.614Z,15.62
2022-09-14T04:39:36.127Z,15.61
2022-09-14T04:42:02.427Z,15.60
2022-09-14T04:44:28.728Z,15.58
2022-09-14T04:46:55.120Z,15.60
2022-09-14T04:49:21.657Z,15.62
2022-09-14T04:51:48.350Z,15.63
2022-09-14T04:54:15.777Z,15.66
2022-09-14T04:56:42.164Z,15.68
2022-09-14T04:59:08.994Z,15.68
2022-09-14T05:01:37.329Z,15.71
2022-09-14T05:04:04.353Z,15.71
2022-09-14T05:06:32.550Z,15.72
2022-09-14T05:08:59.950Z,15.71
2022-09-14T05:11:31.069Z,15.72
2022-09-14T05:13:57.997Z,15.75
2022-09-14T05:16:26.076Z,15.76
2022-09-14T05:18:54.570Z,15.76
2022-09-14T05:21:21.842Z,15.77
2022-09-14T05:23:52.553Z,15.78
2022-09-14T05:26:18.828Z,15.83
2022-09-14T05:28:49.161Z,15.85
2022-09-14T05:31:17.048Z,15.88
2022-09-14T05:33:43.531Z,15.91
2022-09-14T05:36:10.318Z,15.93
2022-09-14T05:38:37.818Z,15.98
2022-09-14T05:41:05.041Z,16.00
2022-09-14T05:43:31.813Z,16.04
2022-09-14T05:46:02.496Z,16.18
2022-09-14T05:48:35.652Z,16.24
2022-09-14T05:51:03.186Z,16.24
2022-09-14T05:53:29.597Z,16.24
2022-09-14T05:56:02.650Z,16.24
2022-09-14T05:58:29.029Z,16.26
2022-09-14T06:00:55.463Z,16.27
2022-09-14T06:03:21.896Z,16.30
2022-09-14T06:05:48.307Z,16.37
2022-09-14T06:08:14.828Z,16.40
2022-09-14T06:10:41.189Z,16.45
2022-09-14T06:13:07.762Z,16.49
2022-09-14T06:15:34.738Z,16.53
2022-09-14T06:18:01.103Z,16.56
2022-09-14T06:20:27.660Z,16.61
2022-09-14T06:22:54.044Z,16.65
2022-09-14T06:25:20.434Z,16.67
2022-09-14T06:27:46.735Z,16.74
2022-09-14T06:30:13.137Z,16.78
2022-09-14T06:32:39.462Z,16.83
2022-09-14T06:35:10.361Z,16.89
2022-09-14T06:37:38.855Z,16.96
2022-09-14T06:40:05.468Z,16.99
2022-09-14T06:42:31.838Z,17.04
2022-09-14T06:44:58.243Z,17.09
2022-09-14T06:47:24.616Z,17.17
2022-09-14T06:49:51.064Z,17.22
2022-09-14T06:52:17.379Z,17.28
2022-09-14T06:54:43.673Z,17.36
2022-09-14T06:57:10.022Z,17.43
2022-09-14T06:59:36.410Z,17.50
2022-09-14T07:02:02.736Z,17.58
2022-09-14T07:04:30.033Z,17.63
2022-09-14T07:06:56.368Z,17.69
2022-09-14T07:09:22.744Z,17.76
2022-09-14T07:11:49.171Z,17.84
2022-09-14T07:14:15.716Z,17.90
2022-09-14T07:16:42.098Z,17.97
2022-09-14T07:19:12.890Z,18.04
2022-09-14T07:21:39.424Z,18.07
2022-09-14T07:24:05.849Z,18.09
2022-09-14T07:26:33.854Z,18.14
2022-09-14T07:29:01.468Z,18.19
2022-09-14T07:31:29.988Z,18.20
2022-09-14T07:33:57.454Z,18.26
2022-09-14T07:36:25.107Z,18.34
2022-09-14T07:38:53.166Z,18.43
2022-09-14T07:41:24.065Z,18.55
2022-09-14T07:43:51.497Z,18.67
2022-09-14T07:46:17.873Z,18.76
2022-09-14T07:48:44.409Z,18.84
2022-09-14T07:51:11.432Z,18.92
2022-09-14T07:53:39.126Z,19.00
2022-09-14T07:56:06.176Z,19.14
2022-09-14T07:58:32.473Z,19.35
2022-09-14T08:01:02.837Z,19.62
2022-09-14T08:03:29.787Z,20.01
2022-09-14T08:06:01.213Z,20.43
2022-09-14T08:08:31.065Z,20.67
2022-09-14T08:11:03.117Z,20.74
2022-09-14T08:13:29.391Z,20.77
2022-09-14T08:15:58.918Z,20.80
2022-09-14T08:18:25.236Z,20.82
2022-09-14T08:20:52.207Z,20.88
2022-09-14T08:23:18.818Z,20.97
2022-09-14T08:25:45.179Z,21.01
2022-09-14T08:28:11.922Z,21.02
2022-09-14T08:30:38.306Z,20.96
2022-09-14T08:33:04.747Z,20.96
2022-09-14T08:35:53.869Z,20.81
2022-09-14T08:38:17.554Z,20.80
2022-09-14T08:40:45.157Z,20.72
2022-09-14T08:43:12.797Z,20.73
2022-09-14T08:45:41.623Z,20.67
2022-09-14T08:48:15.730Z,20.74
2022-09-14T08:50:42.106Z,20.71
2022-09-14T08:53:08.821Z,20.79
2022-09-14T08:55:53.483Z,20.84
2022-09-14T08:58:45.099Z,20.83
2022-09-14T09:01:23.148Z,20.77
2022-09-14T09:04:08.332Z,20.80
2022-09-14T09:06:41.611Z,20.91
2022-09-14T09:09:30.489Z,20.96
2022-09-14T09:11:57.834Z,20.96
2022-09-14T09:14:31.774Z,20.97
2022-09-14T09:17:00.811Z,20.96
2022-09-14T09:19:30.433Z,20.94
2022-09-14T09:21:57.443Z,20.99
2022-09-14T09:24:37.413Z,20.97
2022-09-14T09:27:14.378Z,21.07
2022-09-14T09:29:41.051Z,21.00
2022-09-14T09:32:18.035Z,20.89
2022-09-14T09:34:44.373Z,20.98
2022-09-14T09:37:18.922Z,21.03
2022-09-14T09:39:45.826Z,21.07
2022-09-14T09:42:14.071Z,21.17
2022-09-14T09:44:56.939Z,21.23
2022-09-14T09:47:28.900Z,21.21
2022-09-14T09:50:03.647Z,21.21
2022-09-14T09:52:32.928Z,21.30
2022-09-14T09:55:00.245Z,21.34
2022-09-14T09:57:31.908Z,21.41
2022-09-14T10:00:21.268Z,21.38
2022-09-14T10:02:48.213Z,21.45
2022-09-14T10:05:17.295Z,21.46
2022-09-14T10:07:49.818Z,21.48
2022-09-14T10:10:20.917Z,21.52
2022-09-14T10:12:48.624Z,21.63
2022-09-14T10:15:17.387Z,21.80
2022-09-14T10:18:13.326Z,22.07
2022-09-14T10:21:02.946Z,22.25
2022-09-14T10:23:30.830Z,22.35
2022-09-14T10:26:12.415Z,22.31
2022-09-14T10:28:40.235Z,22.32
2022-09-14T10:31:06.570Z,22.30
2022-09-14T10:33:34.449Z,22.40
2022-09-14T10:36:03.669Z,22.41
2022-09-14T10:38:43.921Z,22.32
2022-09-14T10:41:13.828Z,22.30
2022-09-14T10:43:43.310Z,22.35
2022-09-14T10:46:12.879Z,22.32
2022-09-14T10:48:45.425Z,22.28
2022-09-14T10:51:32.024Z,22.32
2022-09-14T10:54:11.853Z,22.47
2022-09-14T10:56:53.125Z,22.81
2022-09-14T10:59:31.742Z,23.07
2022-09-14T11:02:16.494Z,23.20
2022-09-14T11:04:42.878Z,23.40
2022-09-14T11:07:18.041Z,23.85
2022-09-14T11:10:03.332Z,24.17
2022-09-14T11:12:29.622Z,24.35
2022-09-14T11:15:05.299Z,24.00
2022-09-14T11:17:50.625Z,24.03
2022-09-14T11:20:26.579Z,24.10
2022-09-14T11:23:02.009Z,24.06
2022-09-14T11:25:36.816Z,23.97
2022-09-14T11:28:11.592Z,23.83
2022-09-14T11:30:44.868Z,23.42
2022-09-14T11:33:13.835Z,23.45
2022-09-14T11:35:44.805Z,23.41
2022-09-14T11:38:15.605Z,23.36
2022-09-14T11:40:45.195Z,23.26
2022-09-14T11:43:14.321Z,23.12
2022-09-14T11:45:46.859Z,23.15
2022-09-14T11:48:41.887Z,23.13
2022-09-14T11:51:06.685Z,23.50
2022-09-14T11:53:33.550Z,23.86
2022-09-14T11:56:00.427Z,24.27
2022-09-14T11:58:29.585Z,24.34
2022-09-14T12:01:01.545Z,24.50
2022-09-14T12:03:51.754Z,24.94
2022-09-14T12:06:30.637Z,25.15
2022-09-14T12:09:12.336Z,25.09
2022-09-14T12:11:38.724Z,25.30
2022-09-14T12:14:23.813Z,26.00
2022-09-14T12:17:17.263Z,26.80
2022-09-14T12:19:55.596Z,26.34
2022-09-14T12:22:28.454Z,25.87
2022-09-14T12:25:00.205Z,25.35
2022-09-14T12:27:29.285Z,24.85
2022-09-14T12:29:55.620Z,24.39
2022-09-14T12:32:42.324Z,24.41
2022-09-14T12:35:27.526Z,25.21
2022-09-14T12:37:53.845Z,25.91
2022-09-14T12:40:20.404Z,26.40
2022-09-14T12:42:47.080Z,26.81
2022-09-14T12:45:32.174Z,27.14
2022-09-14T12:47:58.745Z,27.43
2022-09-14T12:50:27.605Z,27.62
2022-09-14T12:53:00.056Z,27.52
2022-09-14T12:55:39.272Z,27.56
2022-09-14T12:58:24.423Z,27.56
2022-09-14T13:00:57.027Z,27.30
2022-09-14T13:03:42.744Z,27.34
2022-09-14T13:06:13.107Z,27.34
2022-09-14T13:08:43.205Z,27.22
2022-09-14T13:11:09.967Z,26.95
2022-09-14T13:13:36.759Z,26.68
2022-09-14T13:16:05.017Z,26.33
2022-09-14T13:18:35.797Z,26.11
2022-09-14T13:21:18.205Z,25.70
2022-09-14T13:23:44.539Z,25.64
2022-09-14T13:26:19.346Z,25.35
2022-09-14T13:28:46.515Z,25.52
2022-09-14T13:31:15.172Z,25.48
2022-09-14T13:33:46.795Z,25.45
2022-09-14T13:36:16.565Z,25.24
2022-09-14T13:38:43.076Z,25.10
2022-09-14T13:41:11.584Z,24.92
2022-09-14T13:43:38.252Z,24.96
2022-09-14T13:46:07.395Z,24.99
2022-09-14T13:48:33.991Z,25.02
2022-09-14T13:51:00.343Z,24.97
2022-09-14T13:53:45.510Z,24.78
2022-09-14T13:56:20.742Z,25.01
2022-09-14T13:58:48.320Z,25.08
2022-09-14T14:01:25.569Z,25.42
2022-09-14T14:03:52.251Z,25.78
2022-09-14T14:06:20.366Z,25.61
2022-09-14T14:08:53.195Z,25.56
2022-09-14T14:11:26.256Z,25.62
2022-09-14T14:13:52.973Z,25.40
2022-09-14T14:16:28.675Z,25.58
2022-09-14T14:18:58.403Z,25.39
2022-09-14T14:21:24.867Z,25.44
2022-09-14T14:24:12.112Z,25.61
2022-09-14T14:26:39.037Z,25.70
2022-09-14T14:29:09.287Z,25.85
2022-09-14T14:31:35.709Z,26.16
2022-09-14T14:34:10.989Z,26.28
2022-09-14T14:36:37.367Z,26.29
2022-09-14T14:39:03.797Z,26.27
2022-09-14T14:41:30.134Z,25.87
2022-09-14T14:43:56.470Z,25.79
2022-09-14T14:46:22.952Z,25.70
2022-09-14T14:48:49.363Z,25.70
2022-09-14T14:51:15.728Z,25.88
2022-09-14T14:53:42.618Z,25.77
2022-09-14T14:56:12.488Z,25.58
2022-09-14T14:58:45.773Z,25.49
2022-09-14T15:01:12.892Z,25.40
2022-09-14T15:03:39.295Z,25.11
2022-09-14T15:06:14.273Z,24.80
2022-09-14T15:08:40.581Z,24.64
2022-09-14T15:11:13.079Z,24.65
2022-09-14T15:13:39.431Z,24.74
2022-09-14T15:16:05.914Z,24.72
2022-09-14T15:18:32.207Z,24.75
2022-09-14T15:20:58.493Z,24.60
2022-09-14T15:23:24.974Z,24.45
2022-09-14T15:25:51.713Z,24.37
2022-09-14T15:28:18.594Z,24.26
2022-09-14T15:30:44.905Z,23.95
2022-09-14T15:33:11.301Z,23.70
2022-09-14T15:35:38.980Z,23.49
2022-09-14T15:38:05.716Z,23.57
2022-09-14T15:40:32.605Z,23.49
2022-09-14T15:42:59.300Z,23.36
2022-09-14T15:45:25.757Z,23.37
2022-09-14T15:47:52.378Z,23.22
2022-09-14T15:50:18.865Z,22.94
2022-09-14T15:52:45.399Z,22.85
2022-09-14T15:55:12.170Z,22.71
2022-09-14T15:57:38.990Z,22.64
2022-09-14T16:00:06.788Z,22.53
2022-09-14T16:02:33.149Z,22.33
2022-09-14T16:04:59.506Z,22.24
2022-09-14T16:07:27.783Z,22.29
2022-09-14T16:09:58.266Z,22.26
2022-09-14T16:12:25.221Z,22.36
2022-09-14T16:14:51.548Z,22.42
2022-09-14T16:17:17.850Z,22.46
2022-09-14T16:19:44.178Z,22.45
2022-09-14T16:22:10.653Z,22.47
2022-09-14T16:24:37.206Z,22.40
2022-09-14T16:27:03.584Z,22.43
2022-09-14T16:29:29.922Z,22.46
2022-09-14T16:31:56.306Z,22.38
2022-09-14T16:34:26.994Z,22.18
2022-09-14T16:36:53.553Z,22.11
2022-09-14T16:39:22.374Z,22.11
2022-09-14T16:41:49.221Z,22.10
2022-09-14T16:44:16.720Z,21.99
2022-09-14T16:46:43.466Z,21.94
2022-09-14T16:49:09.876Z,21.85
2022-09-14T16:51:36.387Z,21.83
2022-09-14T16:54:02.848Z,21.84
2022-09-14T16:56:31.254Z,21.77
2022-09-14T16:58:58.139Z,21.76
2022-09-14T17:01:31.948Z,21.71
2022-09-14T17:04:00.233Z,21.54
2022-09-14T17:06:28.457Z,21.43
2022-09-14T17:09:00.156Z,21.43
2022-09-14T17:11:27.294Z,21.38
2022-09-14T17:13:53.876Z,21.35
2022-09-14T17:16:21.187Z,21.42
2022-09-14T17:18:49.205Z,21.39
2022-09-14T17:21:17.084Z,21.39
2022-09-14T17:23:43.719Z,21.34
2022-09-14T17:26:11.357Z,21.23
2022-09-14T17:28:38.454Z,21.03
2022-09-14T17:31:05.876Z,20.97
2022-09-14T17:33:34.223Z,20.83
2022-09-14T17:36:00.583Z,20.74
2022-09-14T17:38:28.178Z,20.65
2022-09-14T17:41:01.695Z,20.62
2022-09-14T17:43:28.031Z,20.51
2022-09-14T17:45:55.573Z,20.37
2022-09-14T17:48:22.590Z,20.25
2022-09-14T17:50:48.962Z,20.20
2022-09-14T17:53:15.277Z,20.18
2022-09-14T17:55:42.445Z,20.19
2022-09-14T17:58:09.230Z,20.04
2022-09-14T18:00:35.589Z,19.99
2022-09-14T18:03:02.043Z,19.92
2022-09-14T18:05:28.349Z,19.77
2022-09-14T18:07:54.900Z,19.77
2022-09-14T18:10:21.340Z,19.74
2022-09-14T18:12:47.813Z,19.73
2022-09-14T18:15:15.381Z,19.61
2022-09-14T18:17:42.863Z,19.64
2022-09-14T18:20:09.890Z,19.59
2022-09-14T18:22:37.007Z,19.60
2022-09-14T18:25:05.179Z,19.59
2022-09-14T18:27:32.163Z,19.59
2022-09-14T18:29:59.079Z,19.56
2022-09-14T18:32:26.055Z,19.53
2022-09-14T18:34:53.666Z,19.47
2022-09-14T18:37:20.742Z,19.47
2022-09-14T18:39:47.291Z,19.47
2022-09-14T18:42:13.880Z,19.35
2022-09-14T18:44:42.869Z,19.33
2022-09-14T18:47:09.404Z,19.33
2022-09-14T18:49:35.821Z,19.33
2022-09-14T18:52:02.896Z,19.30
2022-09-14T18:54:29.840Z,19.28
2022-09-14T18:56:56.374Z,19.27
2022-09-14T18:59:23.669Z,19.28
2022-09-14T19:01:50.487Z,19.25
2022-09-14T19:04:17.108Z,19.22
2022-09-14T19:06:44.724Z,19.17
2022-09-14T19:09:14.286Z,19.14
2022-09-14T19:11:42.176Z,19.06
2022-09-14T19:14:10.724Z,19.05
2022-09-14T19:16:39.217Z,19.01
2022-09-14T19:19:10.806Z,18.97
2022-09-14T19:21:37.718Z,18.94
2022-09-14T19:24:06.917Z,18.91
2022-09-14T19:26:43.928Z,18.86
2022-09-14T19:29:11.611Z,18.84
2022-09-14T19:31:38.741Z,18.79
2022-09-14T19:34:05.756Z,18.78
2022-09-14T19:36:36.095Z,18.75
2022-09-14T19:39:03.958Z,18.74
2022-09-14T19:41:31.926Z,18.71
2022-09-14T19:43:58.703Z,18.66
2022-09-14T19:46:25.581Z,18.63
2022-09-14T19:48:52.891Z,18.54
2022-09-14T19:51:21.520Z,18.46
2022-09-14T19:53:49.157Z,18.37
2022-09-14T19:56:17.282Z,18.28
2022-09-14T19:58:44.910Z,18.23
2022-09-14T20:01:11.720Z,18.15
2022-09-14T20:03:38.914Z,18.06
2022-09-14T20:06:07.093Z,18.00
2022-09-14T20:08:36.931Z,17.93
2022-09-14T20:11:07.283Z,17.87
2022-09-14T20:13:34.101Z,17.82
2022-09-14T20:16:01.439Z,17.76
2022-09-14T20:18:30.503Z,17.69
2022-09-14T20:20:56.972Z,17.64
2022-09-14T20:23:23.274Z,17.58
2022-09-14T20:25:49.657Z,17.56
2022-09-14T20:28:16.804Z,17.53
2022-09-14T20:30:43.325Z,17.49
2022-09-14T20:33:09.855Z,17.45
2022-09-14T20:35:36.791Z,17.42
2022-09-14T20:38:04.718Z,17.41
2022-09-14T20:40:31.686Z,17.36
2022-09-14T20:42:58.245Z,17.31
2022-09-14T20:45:24.982Z,17.22
2022-09-14T20:47:51.298Z,17.16
2022-09-14T20:50:20.856Z,17.12
2022-09-14T20:52:47.548Z,17.09
2022-09-14T20:55:14.069Z,17.05
2022-09-14T20:57:40.631Z,17.00
2022-09-14T21:00:07.798Z,16.98
2022-09-14T21:02:34.659Z,16.97
2022-09-14T21:05:01.185Z,16.95
2022-09-14T21:07:27.742Z,16.90
2022-09-14T21:09:54.331Z,16.87
2022-09-14T21:12:20.769Z,16.84
2022-09-14T21:14:47.939Z,16.80
2022-09-14T21:17:14.608Z,16.79
2022-09-14T21:19:40.918Z,16.77
2022-09-14T21:22:07.691Z,16.72
2022-09-14T21:24:35.104Z,16.70
2022-09-14T21:27:02.150Z,16.67
2022-09-14T21:29:29.091Z,16.63
2022-09-14T21:31:55.672Z,16.60
2022-09-14T21:34:22.263Z,16.56
2022-09-14T21:36:50.667Z,16.53
2022-09-14T21:39:19.384Z,16.49
2022-09-14T21:41:46.197Z,16.50
2022-09-14T21:44:13.485Z,16.48
2022-09-14T21:46:40.176Z,16.44
2022-09-14T21:49:06.946Z,16.39
2022-09-14T21:51:34.780Z,16.38
2022-09-14T21:54:06.130Z,16.36
2022-09-14T21:56:33.718Z,16.32
2022-09-14T21:59:01.015Z,16.30
2022-09-14T22:01:28.138Z,16.25
2022-09-14T22:03:55.051Z,16.24
2022-09-14T22:06:23.137Z,16.23
2022-09-14T22:08:50.520Z,16.21
2022-09-14T22:11:22.388Z,16.20
2022-09-14T22:13:54.247Z,16.16
2022-09-14T22:16:21.300Z,16.14
2022-09-14T22:18:55.725Z,16.11
2022-09-14T22:21:23.042Z,16.06
2022-09-14T22:23:50.841Z,16.05
2022-09-14T22:26:19.925Z,16.04
2022-09-14T22:28:47.345Z,16.04
2022-09-14T22:31:13.829Z,16.05
2022-09-14T22:33:40.706Z,16.04
2022-09-14T22:36:07.649Z,16.05
2022-09-14T22:38:34.324Z,16.07
2022-09-14T22:41:02.695Z,16.07
2022-09-14T22:43:29.642Z,16.07
2022-09-14T22:45:56.369Z,16.09
2022-09-14T22:48:23.169Z,16.11
2022-09-14T22:50:50.703Z,16.14
2022-09-14T22:53:17.491Z,16.18
2022-09-14T22:55:44.715Z,16.18
2022-09-14T22:58:12.196Z,16.18
2022-09-14T23:00:40.688Z,16.24
2022-09-14T23:03:07.753Z,16.29
2022-09-14T23:05:34.779Z,16.34
2022-09-14T23:08:01.871Z,16.37
2022-09-14T23:10:28.347Z,16.43
2022-09-14T23:12:54.896Z,16.47
2022-09-14T23:15:21.701Z,16.52
2022-09-14T23:17:52.024Z,16.56
2022-09-14T23:20:19.109Z,16.62
2022-09-14T23:22:45.562Z,16.69
2022-09-14T23:25:12.159Z,16.71
2022-09-14T23:27:38.470Z,16.74
2022-09-14T23:30:05.464Z,16.75
2022-09-14T23:32:32.208Z,16.75
2022-09-14T23:34:58.793Z,16.76
2022-09-14T23:37:25.478Z,16.78
2022-09-14T23:39:52.454Z,16.78
2022-09-14T23:42:19.376Z,16.77
2022-09-14T23:44:45.891Z,16.79
2022-09-14T23:47:12.321Z,16.82
2022-09-14T23:49:38.683Z,16.84
2022-09-14T23:52:05.108Z,16.87
2022-09-14T23:54:32.429Z,16.91
2022-09-14T23:56:58.926Z,16.92
2022-09-14T23:59:25.414Z,16.93
